Time;durP1;ratioP1;P1;durP2;ratioP2;P2;SDS_P1;SDS_P2;PMS_P1;PMS_P2;Temp;Humidity;BMP_temperature;BMP_pressure;BME280_temperature;BME280_humidity;BME280_pressure;Samples;Min_cycle;Max_cycle;Signal;HPM_P1;HPM_P2
2022/06/17 00:01:04;;;;;;;3.30;2.47;;;;;;;26.25;41.06;102307.50;5048163;28;20052;-64
2022/06/17 00:03:31;;;;;;;2.83;2.53;;;;;;;26.23;40.75;102296.84;5032610;28;20116;-64
2022/06/17 00:06:00;;;;;;;2.83;2.53;;;;;;;26.24;40.85;102289.69;5032663;28;20025;-64
2022/06/17 00:08:27;;;;;;;3.00;2.70;;;;;;;26.22;40.76;102284.38;5032885;28;20026;-64
2022/06/17 00:10:53;;;;;;;3.83;2.70;;;;;;;26.21;40.79;102287.97;5032856;28;20917;-64
2022/06/17 00:13:20;;;;;;;3.00;2.70;;;;;;;26.21;40.71;102285.31;5031671;28;20029;-64
2022/06/17 00:15:47;;;;;;;2.95;2.65;;;;;;;26.20;40.66;102280.88;5032236;28;20109;-64
2022/06/17 00:18:14;;;;;;;2.67;2.40;;;;;;;26.20;40.98;102286.22;5032611;28;20432;-65
2022/06/17 00:20:40;;;;;;;2.60;2.40;;;;;;;26.20;40.76;102293.34;5032450;28;20435;-65
2022/06/17 00:23:14;;;;;;;2.85;2.58;;;;;;;26.17;40.98;102296.97;5033478;28;20025;-64
2022/06/17 00:25:41;;;;;;;3.15;2.78;;;;;;;26.19;40.84;102299.63;5036413;28;20476;-64
2022/06/17 00:28:12;;;;;;;3.35;2.80;;;;;;;26.16;40.66;102297.94;5036555;28;20040;-65
2022/06/17 00:30:38;;;;;;;3.00;2.50;;;;;;;26.17;40.72;102301.44;5035318;28;20032;-64
2022/06/17 00:33:04;;;;;;;3.33;2.70;;;;;;;26.16;40.86;102308.63;5036486;28;20025;-64
2022/06/17 00:35:48;;;;;;;3.42;2.80;;;;;;;26.14;40.86;102312.25;5036211;28;20100;-65
2022/06/17 00:38:17;;;;;;;2.83;2.50;;;;;;;26.15;40.92;102306.00;5036286;28;20033;-64
2022/06/17 00:40:43;;;;;;;3.53;2.60;;;;;;;26.15;40.92;102300.63;5036168;28;20383;-64
2022/06/17 00:43:36;;;;;;;3.45;2.80;;;;;;;26.15;40.73;102306.00;5035980;28;20062;-64
2022/06/17 00:46:33;;;;;;;3.00;2.70;;;;;;;26.12;40.73;102301.59;5025501;28;20491;-64
2022/06/17 00:49:02;;;;;;;3.30;2.90;;;;;;;26.13;40.94;102310.50;5035855;28;20480;-64
2022/06/17 00:51:32;;;;;;;3.15;2.70;;;;;;;26.12;40.82;102311.41;5036022;28;20047;-64
2022/06/17 00:54:04;;;;;;;3.20;2.70;;;;;;;26.11;40.81;102312.31;5034436;28;20025;-64
2022/06/17 00:56:33;;;;;;;3.10;2.60;;;;;;;26.11;40.88;102305.19;5035687;28;20029;-64
2022/06/17 00:58:58;;;;;;;2.97;2.67;;;;;;;26.09;40.78;102303.50;5036112;28;20021;-65
2022/06/17 01:01:24;;;;;;;3.45;2.90;;;;;;;26.07;40.63;102300.84;5051566;28;20037;-65
2022/06/17 01:03:53;;;;;;;4.22;2.75;;;;;;;26.08;40.78;102293.72;5035565;28;20025;-65
2022/06/17 01:06:22;;;;;;;3.13;2.72;;;;;;;26.06;40.83;102293.75;5034593;28;20060;-65
2022/06/17 01:11:38;;;;;;;3.58;2.50;;;;;;;26.03;40.85;102287.63;5016007;28;20040;-65
2022/06/17 01:14:06;;;;;;;3.40;2.80;;;;;;;26.06;41.08;102290.19;5033639;28;20083;-66
2022/06/17 01:16:38;;;;;;;3.00;2.70;;;;;;;26.04;40.78;102282.25;5035445;28;20079;-66
2022/06/17 01:19:16;;;;;;;3.10;2.75;;;;;;;26.03;41.18;102285.84;5035534;28;20430;-65
2022/06/17 01:22:28;;;;;;;2.90;2.60;;;;;;;26.04;40.68;102292.06;5029258;28;20030;-65
2022/06/17 01:24:58;;;;;;;2.90;2.50;;;;;;;26.04;40.90;102292.06;5027055;28;20116;-65
2022/06/17 01:27:27;;;;;;;3.60;2.70;;;;;;;26.02;40.73;102301.91;5035623;28;20037;-65
2022/06/17 01:29:53;;;;;;;3.35;2.80;;;;;;;26.01;40.87;102295.69;5034256;28;20545;-65
2022/06/17 01:32:25;;;;;;;3.40;2.78;;;;;;;26.02;41.00;102296.56;5035335;28;20025;-65
2022/06/17 01:34:51;;;;;;;4.03;2.60;;;;;;;26.02;40.98;102283.19;5033940;28;20049;-65
2022/06/17 01:37:17;;;;;;;3.40;2.65;;;;;;;26.00;41.01;102283.22;5035262;28;20037;-65
2022/06/17 01:39:42;;;;;;;3.00;2.70;;;;;;;25.99;41.09;102283.28;5035005;28;20083;-65
2022/06/17 01:42:09;;;;;;;3.38;2.60;;;;;;;25.98;41.10;102282.41;5033956;28;20060;-65
2022/06/17 01:44:38;;;;;;;3.30;2.80;;;;;;;25.97;40.95;102277.13;5035103;28;20398;-65
2022/06/17 01:47:11;;;;;;;3.35;2.85;;;;;;;25.95;40.79;102276.28;5035021;28;20467;-65
2022/06/17 01:49:44;;;;;;;3.25;2.95;;;;;;;25.94;41.22;102270.03;5034995;28;20040;-65
2022/06/17 01:52:18;;;;;;;3.45;2.50;;;;;;;25.93;40.87;102268.28;5035028;28;20107;-65
2022/06/17 01:54:48;;;;;;;2.78;2.47;;;;;;;25.94;40.77;102270.03;5034803;28;20107;-65
2022/06/17 01:57:18;;;;;;;2.90;2.60;;;;;;;25.95;40.76;102274.47;5034744;28;20021;-65
2022/06/17 01:59:50;;;;;;;3.22;2.70;;;;;;;25.93;40.95;102275.44;5034936;28;20475;-65
2022/06/17 02:02:17;;;;;;;3.28;2.90;;;;;;;25.93;41.17;102278.09;5033656;28;20037;-65
2022/06/17 02:04:50;;;;;;;3.67;2.70;;;;;;;25.90;40.86;102279.09;5034742;28;20502;-65
2022/06/17 02:07:23;;;;;;;3.42;3.03;;;;;;;25.91;40.97;102287.97;5034896;28;20021;-65
2022/06/17 02:09:49;;;;;;;4.18;2.97;;;;;;;25.92;41.04;102289.72;5034647;28;20029;-66
2022/06/17 02:12:18;;;;;;;3.35;2.63;;;;;;;25.89;40.89;102285.34;5034419;28;20122;-65
2022/06/17 02:14:46;;;;;;;3.72;2.85;;;;;;;25.90;41.03;102284.44;5034454;28;20030;-65
2022/06/17 02:17:11;;;;;;;2.90;2.60;;;;;;;25.91;41.00;102280.84;5034649;28;20029;-65
2022/06/17 02:19:40;;;;;;;3.00;2.65;;;;;;;25.91;40.92;102288.84;5034106;28;20040;-64
2022/06/17 02:22:29;;;;;;;3.47;2.72;;;;;;;25.88;41.21;102283.56;5034394;28;20057;-65
2022/06/17 02:24:58;;;;;;;3.35;2.67;;;;;;;25.88;40.95;102285.38;5033184;28;20112;-65
2022/06/17 02:27:25;;;;;;;3.50;2.67;;;;;;;25.88;40.82;102288.03;5034422;28;20063;-65
2022/06/17 02:29:51;;;;;;;3.00;2.67;;;;;;;25.85;41.14;102281.88;5016869;28;20545;-65
2022/06/17 02:32:18;;;;;;;3.13;2.75;;;;;;;25.87;41.06;102279.16;5016921;28;20403;-65
2022/06/17 02:34:56;;;;;;;3.42;2.55;;;;;;;25.86;41.00;102272.06;5034138;28;20133;-65
2022/06/17 02:37:23;;;;;;;3.72;2.60;;;;;;;25.86;40.89;102272.06;5014475;28;20038;-65
2022/06/17 02:39:51;;;;;;;3.08;2.65;;;;;;;25.86;40.92;102266.69;5032798;28;20030;-65
2022/06/17 02:42:30;;;;;;;3.03;2.58;;;;;;;25.84;41.15;102265.91;5032748;28;20047;-65
2022/06/17 02:45:04;;;;;;;3.47;2.75;;;;;;;25.84;40.90;102271.22;5033876;28;20095;-65
2022/06/17 02:47:31;;;;;;;4.72;2.60;;;;;;;25.84;40.84;102265.91;5033864;28;20108;-66
2022/06/17 02:49:57;;;;;;;3.55;2.70;;;;;;;25.84;40.95;102269.44;5033991;28;20492;-65
2022/06/17 02:52:33;;;;;;;5.15;2.72;;;;;;;25.82;41.01;102271.28;5032424;28;20026;-65
2022/06/17 02:55:02;;;;;;;3.58;2.80;;;;;;;25.85;41.01;102270.31;5033565;28;20047;-65
2022/06/17 02:57:30;;;;;;;3.53;2.80;;;;;;;25.82;40.94;102267.72;5033803;28;20438;-65
2022/06/17 03:00:05;;;;;;;3.88;2.72;;;;;;;25.79;40.85;102263.34;5033815;28;20057;-65
2022/06/17 03:02:37;;;;;;;3.05;2.72;;;;;;;25.81;40.97;102258.81;5029469;28;20034;-65
2022/06/17 03:05:10;;;;;;;2.95;2.50;;;;;;;25.80;41.16;102259.75;5032370;28;20033;-65
2022/06/17 03:07:35;;;;;;;3.00;2.70;;;;;;;25.80;40.99;102266.88;5041460;28;20041;-65
2022/06/17 03:10:01;;;;;;;4.72;2.83;;;;;;;25.79;40.99;102266.03;5049091;28;20091;-65
2022/06/17 03:12:29;;;;;;;3.08;2.75;;;;;;;25.80;40.82;102262.41;5033511;28;20037;-65
2022/06/17 03:15:03;;;;;;;3.00;2.70;;;;;;;25.76;40.95;102268.78;5033048;28;20037;-65
2022/06/17 03:17:30;;;;;;;5.25;2.80;;;;;;;25.79;41.11;102267.81;5033433;28;20439;-65
2022/06/17 03:19:58;;;;;;;3.42;2.78;;;;;;;25.77;40.82;102265.19;5032032;28;20597;-65
2022/06/17 03:22:25;;;;;;;3.08;2.78;;;;;;;25.75;41.23;102271.47;5033442;28;20029;-65
2022/06/17 03:25:10;;;;;;;3.15;2.70;;;;;;;25.76;40.98;102266.09;5033309;28;20124;-65
2022/06/17 03:27:45;;;;;;;3.08;2.75;;;;;;;25.77;41.01;102265.19;5022853;28;20108;-65
2022/06/17 03:30:13;;;;;;;3.88;2.67;;;;;;;25.76;41.05;102267.88;5032940;28;20036;-65
2022/06/17 03:32:49;;;;;;;3.55;2.90;;;;;;;25.74;41.13;102269.72;5033279;28;20040;-65
2022/06/17 03:35:24;;;;;;;2.95;2.55;;;;;;;25.74;41.19;102267.03;5032943;28;20132;-65
2022/06/17 03:37:57;;;;;;;3.22;2.60;;;;;;;25.73;41.01;102266.19;5031778;28;20025;-65
2022/06/17 03:40:28;;;;;;;3.63;2.80;;;;;;;25.72;41.14;102268.91;5032962;28;20056;-66
2022/06/17 03:43:02;;;;;;;3.42;2.80;;;;;;;25.74;41.17;102261.69;5032976;28;20456;-65
2022/06/17 03:45:35;;;;;;;3.22;2.80;;;;;;;25.70;41.34;102255.59;5031618;28;20116;-65
2022/06/17 03:48:10;;;;;;;3.30;2.80;;;;;;;25.69;40.94;102267.19;5032510;28;20026;-65
2022/06/17 03:50:42;;;;;;;3.38;2.65;;;;;;;25.71;41.08;102268.03;5032858;28;20029;-65
2022/06/17 03:53:31;;;;;;;3.08;2.78;;;;;;;25.69;41.07;102260.97;5032912;28;20029;-66
2022/06/17 03:56:02;;;;;;;3.58;2.85;;;;;;;25.72;40.88;102268.91;5032995;28;20018;-65
2022/06/17 03:58:28;;;;;;;3.40;3.10;;;;;;;25.71;40.94;102273.38;5030625;28;20345;-65
2022/06/17 04:01:01;;;;;;;3.13;2.58;;;;;;;25.69;41.23;102269.84;5031395;28;20045;-65
2022/06/17 04:03:31;;;;;;;3.15;2.70;;;;;;;25.71;40.99;102262.69;5032822;28;20025;-65
2022/06/17 04:06:00;;;;;;;3.10;2.80;;;;;;;25.71;40.87;102276.03;5032896;28;20052;-66
2022/06/17 04:09:00;;;;;;;4.38;2.92;;;;;;;25.69;40.78;102269.84;5032822;28;20025;-65
2022/06/17 04:11:32;;;;;;;3.53;2.80;;;;;;;25.69;40.85;102272.53;5032965;28;20083;-65
2022/06/17 04:14:00;;;;;;;4.15;2.90;;;;;;;25.69;40.96;102274.31;5024258;28;20048;-65
2022/06/17 04:16:44;;;;;;;3.25;2.65;;;;;;;25.67;40.99;102274.38;5032537;28;20026;-65
2022/06/17 04:19:16;;;;;;;3.10;2.70;;;;;;;25.67;40.82;102284.19;5032408;28;20456;-65
2022/06/17 04:21:41;;;;;;;3.90;2.70;;;;;;;25.68;40.93;102291.25;5032429;28;20024;-65
2022/06/17 04:24:17;;;;;;;3.10;2.70;;;;;;;25.67;40.74;102281.50;5032503;28;20034;-65
2022/06/17 04:26:46;;;;;;;3.45;2.70;;;;;;;25.68;40.82;102272.56;5032671;28;20480;-66
2022/06/17 04:29:19;;;;;;;2.92;2.63;;;;;;;25.67;40.96;102273.50;5032416;28;20480;-65
2022/06/17 04:31:46;;;;;;;3.38;2.80;;;;;;;25.67;40.70;102289.53;5032680;28;20022;-65
2022/06/17 04:34:15;;;;;;;3.45;2.85;;;;;;;25.66;40.77;102285.97;5032427;28;20053;-65
2022/06/17 04:36:46;;;;;;;3.40;2.90;;;;;;;25.66;40.89;102280.63;5032413;28;20480;-66
2022/06/17 04:39:44;;;;;;;3.25;2.80;;;;;;;25.66;40.94;102279.75;5032224;28;20044;-65
2022/06/17 04:42:19;;;;;;;3.30;2.90;;;;;;;25.66;40.81;102279.75;5012829;28;20044;-65
2022/06/17 04:44:45;;;;;;;3.85;2.97;;;;;;;25.66;40.94;102280.63;5030923;28;20018;-65
2022/06/17 04:47:16;;;;;;;3.50;2.85;;;;;;;25.65;40.81;102289.56;5032380;28;20040;-66
2022/06/17 04:49:49;;;;;;;3.33;3.03;;;;;;;25.64;40.82;102293.16;5030900;28;20032;-65
2022/06/17 04:52:37;;;;;;;4.07;2.80;;;;;;;25.65;40.87;102291.34;5023181;28;20037;-65
2022/06/17 04:55:06;;;;;;;3.40;2.78;;;;;;;25.64;40.62;102282.47;5032148;28;20549;-65
2022/06/17 04:57:32;;;;;;;3.42;2.67;;;;;;;25.65;40.78;102288.69;5031828;28;20033;-65
2022/06/17 04:59:59;;;;;;;4.35;3.10;;;;;;;25.64;40.85;102286.94;5031808;28;20407;-65
2022/06/17 05:02:29;;;;;;;3.50;2.90;;;;;;;25.65;40.75;102278.88;5032250;28;20025;-65
2022/06/17 05:04:58;;;;;;;3.25;2.80;;;;;;;25.63;40.99;102279.81;5032020;28;20036;-65
2022/06/17 05:07:27;;;;;;;3.92;3.00;;;;;;;25.64;40.97;102285.13;5031768;28;20040;-66
2022/06/17 05:10:05;;;;;;;3.28;2.80;;;;;;;25.63;40.95;102278.03;5032853;28;20486;-65
2022/06/17 05:12:49;;;;;;;3.38;2.97;;;;;;;25.66;40.79;102282.44;5035748;28;20017;-65
2022/06/17 05:15:17;;;;;;;3.42;3.00;;;;;;;25.67;41.23;102270.84;5035275;28;20036;-65
2022/06/17 05:17:43;;;;;;;3.10;2.70;;;;;;;25.66;40.77;102267.28;5035093;28;20034;-65
2022/06/17 05:20:18;;;;;;;3.60;2.90;;;;;;;25.65;40.73;102265.53;5035152;28;20360;-65
2022/06/17 05:22:46;;;;;;;3.00;2.70;;;;;;;25.66;40.57;102271.75;5035044;28;20468;-65
2022/06/17 05:25:17;;;;;;;3.63;3.03;;;;;;;25.65;40.64;102260.19;5035222;28;20108;-66
2022/06/17 05:27:42;;;;;;;3.72;3.10;;;;;;;25.65;40.92;102262.84;5035084;28;20108;-66
2022/06/17 05:30:08;;;;;;;3.30;2.80;;;;;;;25.65;41.01;102261.97;5034724;28;20079;-65
2022/06/17 05:32:34;;;;;;;3.10;2.67;;;;;;;25.64;40.72;102258.41;5034644;28;20033;-65
2022/06/17 05:34:59;;;;;;;3.65;3.00;;;;;;;25.64;40.68;102268.22;5034944;28;20045;-65
2022/06/17 05:37:25;;;;;;;4.63;2.90;;;;;;;25.64;40.87;102266.44;5050285;28;20037;-65
2022/06/17 05:39:50;;;;;;;3.33;3.03;;;;;;;25.64;41.06;102269.09;5035057;28;20108;-65
2022/06/17 05:42:15;;;;;;;4.00;3.00;;;;;;;25.64;40.90;102266.44;5034707;28;20033;-65
2022/06/17 05:44:41;;;;;;;3.08;2.75;;;;;;;25.64;40.94;102266.44;5034719;28;20036;-65
2022/06/17 05:47:07;;;;;;;3.97;3.00;;;;;;;25.65;40.99;102272.66;5034934;28;20033;-65
2022/06/17 05:49:32;;;;;;;3.30;2.97;;;;;;;25.65;40.75;102273.53;5033818;28;20543;-65
2022/06/17 05:51:58;;;;;;;3.30;2.90;;;;;;;25.56;41.03;102270.19;5033398;28;20055;-66
2022/06/17 05:54:24;;;;;;;2.90;2.60;;;;;;;25.52;41.15;102271.19;5034742;28;20115;-65
2022/06/17 05:56:49;;;;;;;3.30;2.90;;;;;;;25.51;41.16;102269.44;5034525;28;20052;-65
2022/06/17 05:59:17;;;;;;;3.10;2.80;;;;;;;25.51;41.14;102270.31;5050102;28;20145;-65
2022/06/17 06:01:43;;;;;;;3.40;2.90;;;;;;;25.51;41.20;102262.31;5033627;28;20037;-65
2022/06/17 06:04:08;;;;;;;3.25;2.90;;;;;;;25.51;41.26;102259.63;5034411;28;20038;-65
2022/06/17 06:06:33;;;;;;;3.65;3.00;;;;;;;25.50;41.25;102255.19;5034443;28;20035;-66
2022/06/17 06:08:59;;;;;;;3.30;3.00;;;;;;;25.52;41.50;102241.81;5034259;28;20045;-65
2022/06/17 06:11:24;;;;;;;3.92;3.00;;;;;;;25.50;41.38;102252.53;5033362;28;20072;-66
2022/06/17 06:13:49;;;;;;;4.07;2.92;;;;;;;25.53;41.12;102256.94;5034225;28;20064;-65
2022/06/17 06:16:15;;;;;;;3.50;3.00;;;;;;;25.51;41.13;102243.63;5034115;28;20882;-66
2022/06/17 06:18:41;;;;;;;3.80;2.80;;;;;;;25.50;41.23;102252.53;5033352;28;20033;-65
2022/06/17 06:21:07;;;;;;;4.13;3.10;;;;;;;25.51;41.18;102250.75;5033747;28;20056;-65
2022/06/17 06:23:34;;;;;;;4.50;2.97;;;;;;;25.51;41.13;102258.75;5016533;28;20041;-65
2022/06/17 06:26:00;;;;;;;3.17;2.88;;;;;;;25.51;41.06;102262.31;5032741;28;20108;-65
2022/06/17 06:28:27;;;;;;;3.58;3.10;;;;;;;25.51;41.13;102259.63;5032555;28;20476;-65
2022/06/17 06:31:22;;;;;;;3.20;2.90;;;;;;;25.51;41.13;102264.09;5033783;28;20029;-66
2022/06/17 06:33:48;;;;;;;3.17;2.80;;;;;;;25.51;41.36;102264.97;5015268;28;20076;-65
2022/06/17 06:36:13;;;;;;;4.40;3.10;;;;;;;25.52;40.87;102268.53;5032252;28;20029;-65
2022/06/17 06:38:38;;;;;;;3.35;2.97;;;;;;;25.52;41.13;102264.06;5032714;28;20036;-65
2022/06/17 06:41:04;;;;;;;3.28;2.90;;;;;;;25.50;41.33;102267.69;5033407;28;20037;-66
2022/06/17 06:43:29;;;;;;;3.47;2.90;;;;;;;25.50;40.92;102268.56;5033974;28;20041;-65
2022/06/17 06:45:55;;;;;;;4.40;3.20;;;;;;;25.52;41.15;102266.72;5033791;28;20080;-65
2022/06/17 06:48:24;;;;;;;4.50;3.00;;;;;;;25.53;40.93;102267.59;5032569;28;20029;-65
2022/06/17 06:50:52;;;;;;;3.13;2.83;;;;;;;25.54;41.33;102258.69;5033559;28;20037;-65
2022/06/17 06:53:18;;;;;;;3.58;3.00;;;;;;;25.55;40.95;102260.44;5033586;28;20060;-65
2022/06/17 06:55:44;;;;;;;3.47;3.00;;;;;;;25.55;41.10;102242.63;5033675;28;20064;-65
2022/06/17 06:58:18;;;;;;;3.17;2.72;;;;;;;25.55;41.18;102239.97;5032345;28;20025;-65
2022/06/17 07:00:47;;;;;;;3.13;2.72;;;;;;;25.57;40.89;102238.13;5033588;28;20567;-66
2022/06/17 07:03:13;;;;;;;3.35;2.80;;;;;;;25.58;40.87;102239.00;5032170;28;20045;-65
2022/06/17 07:05:42;;;;;;;3.38;3.00;;;;;;;25.58;40.83;102229.22;5033629;28;20092;-65
2022/06/17 07:08:10;;;;;;;3.63;2.90;;;;;;;25.58;40.87;102231.88;5033523;28;20159;-65
2022/06/17 07:10:36;;;;;;;3.95;2.97;;;;;;;25.60;40.90;102235.41;5033281;28;20032;-66
2022/06/17 07:13:02;;;;;;;3.75;3.00;;;;;;;25.60;41.01;102231.84;5033241;28;20096;-65
2022/06/17 07:15:29;;;;;;;3.75;2.90;;;;;;;25.60;41.00;102238.06;5027208;28;20051;-65
2022/06/17 07:18:03;;;;;;;3.65;2.90;;;;;;;25.60;40.90;102235.41;5033310;28;20025;-65
2022/06/17 07:20:37;;;;;;;3.55;3.03;;;;;;;25.61;41.02;102239.81;5029131;28;20032;-65
2022/06/17 07:23:04;;;;;;;3.03;2.70;;;;;;;25.62;40.69;102238.00;5032962;28;20375;-64
2022/06/17 07:25:30;;;;;;;3.40;3.10;;;;;;;25.61;40.96;102242.50;5033003;28;20048;-65
2022/06/17 07:27:55;;;;;;;3.63;2.85;;;;;;;25.62;40.93;102241.56;5032876;28;20059;-65
2022/06/17 07:30:21;;;;;;;3.53;2.80;;;;;;;25.62;40.81;102238.88;5015380;28;20064;-65
2022/06/17 07:32:46;;;;;;;3.35;3.03;;;;;;;25.63;41.07;102235.28;5047333;28;20061;-65
2022/06/17 07:35:14;;;;;;;3.47;3.05;;;;;;;25.65;40.98;102237.94;5031224;28;20042;-65
2022/06/17 07:40:24;;;;;;;3.30;2.88;;;;;;;25.67;40.73;102228.09;5033295;28;20031;-65
2022/06/17 07:42:49;;;;;;;3.78;2.92;;;;;;;25.69;40.57;102226.22;5031495;28;20033;-66
2022/06/17 07:45:18;;;;;;;3.67;3.00;;;;;;;25.71;40.49;102230.63;5032875;28;20056;-65
2022/06/17 07:47:44;;;;;;;3.30;2.97;;;;;;;25.73;40.67;102222.56;5032527;28;20824;-65
2022/06/17 07:50:20;;;;;;;3.55;2.92;;;;;;;25.73;40.42;102220.78;5031364;28;20036;-65
2022/06/17 07:52:46;;;;;;;3.55;2.95;;;;;;;25.76;40.60;102226.03;5032514;28;20076;-65
2022/06/17 07:55:12;;;;;;;5.25;2.95;;;;;;;25.78;40.45;102223.31;5032749;28;20033;-65
2022/06/17 07:57:38;;;;;;;4.28;2.90;;;;;;;25.76;40.55;102220.69;5032505;28;20494;-65
2022/06/17 08:00:09;;;;;;;3.40;2.80;;;;;;;25.77;40.47;102219.78;5032159;28;20026;-67
2022/06/17 08:02:34;;;;;;;3.70;3.08;;;;;;;25.79;40.45;102220.63;5032510;28;20435;-65
2022/06/17 08:04:59;;;;;;;3.20;2.90;;;;;;;25.80;40.29;102219.66;5031399;28;20076;-65
2022/06/17 08:07:25;;;;;;;3.47;3.00;;;;;;;25.80;40.55;102219.66;5032462;28;20032;-65
2022/06/17 08:09:50;;;;;;;3.20;2.90;;;;;;;25.80;40.65;102225.00;5032313;28;20056;-66
2022/06/17 08:12:15;;;;;;;3.53;2.90;;;;;;;25.82;40.69;102223.19;5032338;28;20056;-66
2022/06/17 08:14:43;;;;;;;3.88;3.00;;;;;;;25.84;40.45;102236.50;5047649;28;20087;-65
2022/06/17 08:17:16;;;;;;;3.38;2.78;;;;;;;25.84;40.51;102239.19;5032300;28;20483;-65
2022/06/17 08:19:46;;;;;;;3.60;2.88;;;;;;;25.85;40.70;102231.13;5032312;28;20029;-66
2022/06/17 08:22:12;;;;;;;3.45;2.80;;;;;;;25.85;40.51;102225.78;5032086;28;20100;-66
2022/06/17 08:24:37;;;;;;;3.17;2.80;;;;;;;25.86;40.39;102221.28;5031069;28;20144;-65
2022/06/17 08:27:03;;;;;;;3.15;2.70;;;;;;;25.87;40.64;102220.38;5032099;28;20042;-65
2022/06/17 08:29:30;;;;;;;3.22;2.92;;;;;;;25.87;40.57;102223.03;5032283;28;20041;-65
2022/06/17 08:32:44;;;;;;;3.17;2.88;;;;;;;25.88;40.50;102218.56;5030959;28;20071;-65
2022/06/17 08:34:41;;;;;;;4.00;2.90;;;;;;;25.88;40.32;102216.78;5031921;28;20045;-65
2022/06/17 08:37:07;;;;;;;4.10;2.75;;;;;;;25.89;40.51;102212.31;5032233;28;20076;-65
2022/06/17 08:39:33;;;;;;;3.50;2.90;;;;;;;25.91;40.62;102213.16;5032096;28;20243;-65
2022/06/17 08:42:15;;;;;;;3.35;2.80;;;;;;;25.91;40.49;102216.72;5032020;28;20028;-65
2022/06/17 08:45:01;;;;;;;3.10;2.78;;;;;;;25.94;40.60;102215.72;5034309;28;20486;-65
2022/06/17 08:47:33;;;;;;;3.70;3.10;;;;;;;25.95;40.52;102205.00;5051417;28;20086;-65
2022/06/17 08:50:21;;;;;;;3.40;2.90;;;;;;;25.95;40.35;102205.00;5035778;28;20478;-65
2022/06/17 08:53:02;;;;;;;3.08;2.65;;;;;;;25.97;40.77;102215.66;5035591;28;20781;-65
2022/06/17 08:55:37;;;;;;;3.47;2.70;;;;;;;25.95;40.67;102218.34;5035685;28;20060;-65
2022/06/17 08:58:13;;;;;;;3.65;2.92;;;;;;;25.94;40.83;102216.59;5035711;28;20095;-65
2022/06/17 09:01:08;;;;;;;3.70;2.70;;;;;;;25.95;40.59;102225.50;5022100;28;20047;-65
2022/06/17 09:03:49;;;;;;;3.30;2.80;;;;;;;25.95;40.66;102236.19;5035899;28;20056;-66
2022/06/17 09:06:30;;;;;;;3.25;2.80;;;;;;;25.96;40.77;102228.13;5035604;28;20367;-66
2022/06/17 09:09:23;;;;;;;3.63;2.90;;;;;;;25.97;40.65;102231.69;5035523;28;20033;-65
2022/06/17 09:12:02;;;;;;;3.60;2.80;;;;;;;25.97;40.65;102227.22;5035729;28;20032;-66
2022/06/17 09:15:05;;;;;;;2.97;2.63;;;;;;;25.98;40.70;102228.09;5035675;28;20164;-66
2022/06/17 09:17:58;;;;;;;3.20;2.67;;;;;;;25.99;40.65;102221.81;5034509;28;20483;-65
2022/06/17 09:20:29;;;;;;;3.08;2.78;;;;;;;26.00;40.77;102220.88;5035125;28;20470;-65
2022/06/17 09:23:00;;;;;;;3.40;3.00;;;;;;;26.01;40.62;102218.19;5035171;28;20053;-65
2022/06/17 09:25:34;;;;;;;3.00;2.67;;;;;;;26.01;40.67;102223.53;5035068;28;20033;-66
2022/06/17 09:28:01;;;;;;;3.28;2.80;;;;;;;26.03;40.54;102218.16;5035156;28;20112;-65
2022/06/17 09:30:33;;;;;;;3.90;2.72;;;;;;;26.02;40.59;102217.25;5035095;28;20487;-66
2022/06/17 09:33:09;;;;;;;3.08;2.63;;;;;;;26.04;40.34;102212.75;5035373;28;20027;-66
2022/06/17 09:36:09;;;;;;;3.45;2.90;;;;;;;26.05;40.50;102211.81;5034711;28;20089;-65
2022/06/17 09:38:40;;;;;;;3.00;2.65;;;;;;;26.07;40.50;102212.66;5050287;28;20108;-66
2022/06/17 09:41:18;;;;;;;3.35;2.72;;;;;;;26.05;40.67;102205.59;5035211;28;20065;-66
2022/06/17 09:44:09;;;;;;;3.25;2.95;;;;;;;26.06;40.34;102196.66;5035122;28;20498;-65
2022/06/17 09:47:03;;;;;;;3.20;2.85;;;;;;;26.06;40.48;102191.31;5034826;28;20035;-65
2022/06/17 09:49:50;;;;;;;3.60;2.80;;;;;;;26.08;40.54;102182.34;5032487;28;20045;-65
2022/06/17 09:52:59;;;;;;;3.28;2.63;;;;;;;26.11;40.48;102184.03;5043461;28;20033;-65
2022/06/17 09:55:59;;;;;;;2.95;2.60;;;;;;;26.12;40.33;102185.78;5023080;28;20045;-65
2022/06/17 09:58:43;;;;;;;3.47;2.92;;;;;;;26.12;40.75;102186.66;5014867;28;20045;-65
2022/06/17 10:01:10;;;;;;;3.30;2.70;;;;;;;26.12;40.63;102183.97;5034561;28;20028;-65
2022/06/17 10:03:38;;;;;;;3.08;2.58;;;;;;;26.13;40.66;102199.09;5034696;28;20025;-65
2022/06/17 10:06:19;;;;;;;3.15;2.70;;;;;;;26.15;40.74;102202.63;5034401;28;20128;-65
2022/06/17 10:09:09;;;;;;;2.97;2.60;;;;;;;26.15;40.38;102193.72;5034583;28;20052;-65
2022/06/17 10:12:07;;;;;;;3.50;2.75;;;;;;;26.15;40.60;102194.59;5049691;28;20036;-65
2022/06/17 10:14:57;;;;;;;4.45;2.75;;;;;;;26.17;40.54;102200.75;5028820;28;20065;-65
2022/06/17 10:20:35;;;;;;;3.67;2.70;;;;;;;26.19;40.58;102196.25;5034680;28;20187;-65
2022/06/17 10:23:06;;;;;;;3.45;2.70;;;;;;;26.20;40.63;102192.66;5034262;28;20034;-65
2022/06/17 10:26:03;;;;;;;2.90;2.60;;;;;;;26.21;40.56;102191.75;5034398;28;20030;-65
2022/06/17 10:28:53;;;;;;;3.17;2.65;;;;;;;26.22;40.52;102189.94;5033894;28;20052;-65
2022/06/17 10:31:27;;;;;;;3.10;2.63;;;;;;;26.23;40.58;102191.66;5049746;28;20108;-65
2022/06/17 10:33:55;;;;;;;3.10;2.80;;;;;;;26.23;40.57;102191.66;5033961;28;20459;-65
2022/06/17 10:36:20;;;;;;;2.85;2.45;;;;;;;26.25;40.44;102181.84;5034086;28;20029;-65
2022/06/17 10:38:47;;;;;;;3.45;2.80;;;;;;;26.24;40.63;102172.06;5033701;28;20028;-65
2022/06/17 10:41:16;;;;;;;3.58;2.60;;;;;;;26.25;40.49;102179.16;5033893;28;20030;-65
2022/06/17 10:43:45;;;;;;;3.45;2.78;;;;;;;26.27;40.54;102168.44;5033758;28;20040;-65
2022/06/17 10:46:27;;;;;;;3.38;2.90;;;;;;;26.27;40.50;102180.00;5034099;28;20080;-65
2022/06/17 10:48:55;;;;;;;3.38;2.67;;;;;;;26.29;40.74;102182.66;5033695;28;20139;-65
2022/06/17 10:51:21;;;;;;;3.55;2.83;;;;;;;26.30;40.62;102181.69;5032208;28;20056;-65
2022/06/17 10:53:52;;;;;;;3.13;2.70;;;;;;;26.33;40.36;102181.59;5033622;28;20033;-65
2022/06/17 10:56:36;;;;;;;3.15;2.70;;;;;;;26.34;40.65;102178.03;5034009;28;20029;-65
2022/06/17 10:59:08;;;;;;;3.70;2.70;;;;;;;26.36;40.56;102170.81;5033384;28;20033;-65
2022/06/17 11:01:46;;;;;;;3.10;2.73;;;;;;;26.37;40.57;102164.53;5033487;28;20418;-65
2022/06/17 11:04:25;;;;;;;3.47;2.90;;;;;;;26.37;40.72;102170.75;5033584;28;20021;-65
2022/06/17 11:06:52;;;;;;;2.90;2.60;;;;;;;26.37;40.47;102168.09;5033351;28;20029;-65
2022/06/17 11:09:24;;;;;;;3.58;2.70;;;;;;;26.38;40.50;102160.94;5033310;28;20551;-65
2022/06/17 11:12:03;;;;;;;3.25;2.90;;;;;;;26.38;40.40;102158.28;5033198;28;20033;-65
2022/06/17 11:14:37;;;;;;;3.00;2.67;;;;;;;26.39;40.75;102154.69;5033103;28;20037;-65
2022/06/17 11:17:15;;;;;;;3.13;2.70;;;;;;;26.39;40.67;102157.34;5026364;28;20356;-65
2022/06/17 11:19:42;;;;;;;2.80;2.50;;;;;;;26.38;40.50;102156.47;5033122;28;20515;-65
2022/06/17 11:22:18;;;;;;;3.25;2.60;;;;;;;26.37;40.63;102144.03;5033226;28;20463;-65
2022/06/17 11:24:52;;;;;;;4.20;2.70;;;;;;;26.22;40.94;102155.19;5023843;28;20021;-65
2022/06/17 11:27:23;;;;;;;3.00;2.70;;;;;;;26.18;40.99;102140.16;5031594;28;20091;-66
2022/06/17 11:29:51;;;;;;;3.05;2.70;;;;;;;26.18;41.09;102134.81;5048409;28;20479;-65
2022/06/17 11:32:19;;;;;;;3.63;2.90;;;;;;;26.19;41.05;102133.88;5032893;28;20044;-65
2022/06/17 11:34:51;;;;;;;2.75;2.45;;;;;;;26.19;40.96;102132.09;5032840;28;20100;-66
2022/06/17 11:37:20;;;;;;;2.90;2.60;;;;;;;26.21;41.08;102124.03;5032941;28;20470;-65
2022/06/17 11:39:45;;;;;;;3.08;2.78;;;;;;;26.21;41.00;102108.88;5032856;28;20431;-65
2022/06/17 11:42:24;;;;;;;2.90;2.60;;;;;;;26.22;41.05;102113.28;5048044;28;20068;-65
2022/06/17 11:44:56;;;;;;;3.30;2.85;;;;;;;26.24;41.19;102115.94;5029476;28;20059;-65
2022/06/17 11:47:24;;;;;;;2.95;2.53;;;;;;;26.24;41.22;102106.09;5032675;28;20375;-65
2022/06/17 11:49:52;;;;;;;2.95;2.58;;;;;;;26.24;40.96;102116.81;5032575;28;20502;-66
2022/06/17 11:52:47;;;;;;;3.17;2.58;;;;;;;26.25;41.13;102115.88;5032936;28;20025;-65
2022/06/17 11:55:14;;;;;;;3.22;2.70;;;;;;;26.27;41.07;102110.50;5010939;28;20045;-65